Главная страница
METAR-TAF:

METAR-TAF

Аэропорты :

Норрчёпинг, Швеция

широта: 58-35N, долгота: 016-09E, высота над уровнем моря: 34 м

Текущие метеонаблюдения

Эта сводка был подготовлена 37 минут назад, в 10:20 UTC
Ветер 11 Узел от западный
Температура 14°C
Влажность 72%
Давление 1006 hPa
Видимость 10 км и более

METAR: ESSP 251020Z AUTO 28011KT 9999 FEW027/// OVC053/// 14/09 Q1006

Время: 12:57 (10:57 UTC)

Прогноз

Эта сводка был подготовлена 5 часа и 27 минут назад, в 05:30 UTC
Прогноз действительный с 25-го 06 UTC до 25-го 08 UTC
Ветер 10 Узел от западный
Видимость 10 км и более
Рассеянная облачность на высоте 900 фута
изменения
С 25-го 06 UTC до 25-го 08 UTC
Рассеянная облачность на высоте 2000 фута

TAF: ESSP 250530Z 2506/2508 28010KT 9999 BKN009 BECMG 2506/2508 BKN020

Метеонаблюдения и прогнозы для более 4000 аэропортов (сводки METAR и TAF).

Имеющиеся станции представлены на карте желтыми и красными точками.

Чтобы увидеть название станции, наведите на нее мышь.

Затем щелкните, чтобы увидеть метеонаблюдения и метеопрогнозы.

Управление картой: чтобы увеличить масштаб, щелкните зеленые кнопки с черным крестиком; чтобы уменьшить масштаб, щелкните зеленую кнопку с тире; для просмотра соседних карт щелкайте зеленые стрелки.


METAR-TAF: